Terminal Aerodrome Forecast
Issued by NWS Twin Cities, MN

Home | Current Version | Previous Version | Graphics & Text | Print | Product List | Glossary On
Versions: 1 2 3 4 5 6 7 8 9 10 11 12 13 14 15 16 17 18 19 20 21 22 23 24 25 26 27 28 29
000
FTUS43 KMPX 170847 AAA
TAFMSP
TAF AMD
KMSP 170847Z 1709/1812 21010KT P6SM OVC100
     FM171100 21007KT 3SM -SN BR OVC030
      TEMPO 1711/1714 1SM -SN BR VV015
     FM171430 22007KT P6SM BKN050
     FM171700 28010KT P6SM SCT200
     FM180000 28007KT P6SM SKC=

USA.gov is the U.S. government's official web portal to all federal, state and local government web resources and services.